createdAt,value
2022-10-06T00:00:05.449Z,19.05
2022-10-06T00:02:36.249Z,18.95
2022-10-06T00:05:03.516Z,18.92
2022-10-06T00:07:30.097Z,18.85
2022-10-06T00:09:56.617Z,18.73
2022-10-06T00:12:23.210Z,18.66
2022-10-06T00:14:49.792Z,18.62
2022-10-06T00:17:16.419Z,18.53
2022-10-06T00:19:42.949Z,18.44
2022-10-06T00:22:09.489Z,18.43
2022-10-06T00:24:36.026Z,18.43
2022-10-06T00:27:03.861Z,18.42
2022-10-06T00:29:30.899Z,18.36
2022-10-06T00:31:57.697Z,18.39
2022-10-06T00:34:25.515Z,18.40
2022-10-06T00:36:52.283Z,18.39
2022-10-06T00:39:19.999Z,18.34
2022-10-06T00:41:46.744Z,18.33
2022-10-06T00:44:13.350Z,18.28
2022-10-06T00:46:47.234Z,18.32
2022-10-06T00:49:26.047Z,18.35
2022-10-06T00:51:56.974Z,18.36
2022-10-06T00:54:25.110Z,18.36
2022-10-06T00:56:52.869Z,18.34
2022-10-06T00:59:20.139Z,18.28
2022-10-06T01:01:56.907Z,18.29
2022-10-06T01:04:25.046Z,18.29
2022-10-06T01:06:56.033Z,18.31
2022-10-06T01:09:24.104Z,18.28
2022-10-06T01:11:53.784Z,18.28
2022-10-06T01:14:22.470Z,18.30
2022-10-06T01:16:56.075Z,18.30
2022-10-06T01:19:54.625Z,18.29
2022-10-06T01:22:29.109Z,18.24
2022-10-06T01:24:56.828Z,18.22
2022-10-06T01:27:26.522Z,18.20
2022-10-06T01:29:54.962Z,18.15
2022-10-06T01:32:23.353Z,18.19
2022-10-06T01:34:49.927Z,18.24
2022-10-06T01:37:16.632Z,18.25
2022-10-06T01:39:43.944Z,18.24
2022-10-06T01:42:11.002Z,18.22
2022-10-06T01:44:37.884Z,18.15
2022-10-06T01:47:05.912Z,18.13
2022-10-06T01:49:32.526Z,18.16
2022-10-06T01:51:59.545Z,18.09
2022-10-06T01:54:26.105Z,18.07
2022-10-06T01:56:53.177Z,18.06
2022-10-06T01:59:20.766Z,18.02
2022-10-06T02:01:47.503Z,17.99
2022-10-06T02:04:14.723Z,17.99
2022-10-06T02:06:41.440Z,17.95
2022-10-06T02:09:08.115Z,17.95
2022-10-06T02:11:35.448Z,17.94
2022-10-06T02:14:04.454Z,17.88
2022-10-06T02:16:31.232Z,17.86
2022-10-06T02:18:57.841Z,17.84
2022-10-06T02:21:24.632Z,17.82
2022-10-06T02:23:51.558Z,17.78
2022-10-06T02:26:19.315Z,17.75
2022-10-06T02:28:48.037Z,17.74
2022-10-06T02:31:19.401Z,17.73
2022-10-06T02:33:46.613Z,17.72
2022-10-06T02:36:16.686Z,17.71
2022-10-06T02:38:44.196Z,17.70
2022-10-06T02:41:11.403Z,17.69
2022-10-06T02:43:38.749Z,17.64
2022-10-06T02:46:08.631Z,17.61
2022-10-06T02:48:35.505Z,17.66
2022-10-06T02:51:09.955Z,17.72
2022-10-06T02:53:37.939Z,17.77
2022-10-06T02:56:10.806Z,17.79
2022-10-06T02:58:39.566Z,17.86
2022-10-06T03:01:15.250Z,17.94
2022-10-06T03:03:42.407Z,17.98
2022-10-06T03:06:23.489Z,18.07
2022-10-06T03:09:17.566Z,18.04
2022-10-06T03:11:44.223Z,18.04
2022-10-06T03:14:21.297Z,18.06
2022-10-06T03:16:51.477Z,18.13
2022-10-06T03:19:23.455Z,18.24
2022-10-06T03:21:50.271Z,18.34
2022-10-06T03:24:17.184Z,18.39
2022-10-06T03:26:47.893Z,18.44
2022-10-06T03:29:16.321Z,18.49
2022-10-06T03:31:47.656Z,18.49
2022-10-06T03:34:15.633Z,18.37
2022-10-06T03:36:44.256Z,18.38
2022-10-06T03:39:11.526Z,18.48
2022-10-06T03:41:39.178Z,18.51
2022-10-06T03:44:07.293Z,18.57
2022-10-06T03:46:36.729Z,18.59
2022-10-06T03:49:05.970Z,18.58
2022-10-06T03:51:35.421Z,18.59
2022-10-06T03:54:02.109Z,18.65
2022-10-06T03:56:33.488Z,18.64
2022-10-06T03:59:02.607Z,18.61
2022-10-06T04:01:44.632Z,18.60
2022-10-06T04:04:14.317Z,18.59
2022-10-06T04:06:44.340Z,18.58
2022-10-06T04:09:15.857Z,18.58
2022-10-06T04:11:44.373Z,18.58
2022-10-06T04:14:15.130Z,18.58
2022-10-06T04:16:49.701Z,18.59
2022-10-06T04:19:27.506Z,18.61
2022-10-06T04:21:56.077Z,18.65
2022-10-06T04:24:24.556Z,18.61
2022-10-06T04:26:52.420Z,18.55
2022-10-06T04:29:19.765Z,18.57
2022-10-06T04:31:51.329Z,18.57
2022-10-06T04:34:22.893Z,18.55
2022-10-06T04:36:49.820Z,18.54
2022-10-06T04:39:18.225Z,18.54
2022-10-06T04:41:47.117Z,18.54
2022-10-06T04:44:19.084Z,18.56
2022-10-06T04:46:46.330Z,18.54
2022-10-06T04:49:19.562Z,18.55
2022-10-06T04:51:49.491Z,18.55
2022-10-06T04:54:16.641Z,18.52
2022-10-06T04:56:43.276Z,18.53
2022-10-06T04:59:10.179Z,18.44
2022-10-06T05:01:39.145Z,18.43
2022-10-06T05:04:09.999Z,18.48
2022-10-06T05:06:41.868Z,18.54
2022-10-06T05:09:12.131Z,18.53
2022-10-06T05:11:43.450Z,18.52
2022-10-06T05:14:12.854Z,18.53
2022-10-06T05:16:43.553Z,18.51
2022-10-06T05:19:11.669Z,18.51
2022-10-06T05:21:39.514Z,18.52
2022-10-06T05:24:07.874Z,18.51
2022-10-06T05:26:36.724Z,18.51
2022-10-06T05:29:05.793Z,18.44
2022-10-06T05:31:35.172Z,18.37
2022-10-06T05:34:03.519Z,18.37
2022-10-06T05:36:32.513Z,18.42
2022-10-06T05:38:59.727Z,18.42
2022-10-06T05:41:31.102Z,18.36
2022-10-06T05:44:00.373Z,18.39
2022-10-06T05:46:30.919Z,18.44
2022-10-06T05:49:01.034Z,18.46
2022-10-06T05:51:33.707Z,18.46
2022-10-06T05:54:04.392Z,18.50
2022-10-06T05:56:33.419Z,18.50
2022-10-06T05:59:01.934Z,18.52
2022-10-06T06:01:40.348Z,18.55
2022-10-06T06:04:14.003Z,18.56
2022-10-06T06:06:48.773Z,18.56
2022-10-06T06:09:26.374Z,18.53
2022-10-06T06:11:55.071Z,18.53
2022-10-06T06:14:49.862Z,18.49
2022-10-06T06:17:20.971Z,18.51
2022-10-06T06:19:47.575Z,18.55
2022-10-06T06:22:15.478Z,18.56
2022-10-06T06:24:44.272Z,18.57
2022-10-06T06:27:11.276Z,18.58
2022-10-06T06:29:40.089Z,18.64
2022-10-06T06:32:09.508Z,18.69
2022-10-06T06:34:36.413Z,18.76
2022-10-06T06:37:07.575Z,18.82
2022-10-06T06:39:36.893Z,18.91
2022-10-06T06:42:05.112Z,18.97
2022-10-06T06:44:50.455Z,19.07
2022-10-06T06:47:37.353Z,19.16
2022-10-06T06:50:10.084Z,19.26
2022-10-06T06:52:37.788Z,19.36
2022-10-06T06:55:05.586Z,19.39
2022-10-06T06:57:32.950Z,19.43
2022-10-06T07:00:02.600Z,19.43
2022-10-06T07:02:30.595Z,19.46
2022-10-06T07:04:57.534Z,19.55
2022-10-06T07:07:24.125Z,19.66
2022-10-06T07:09:52.332Z,19.85
2022-10-06T07:12:21.189Z,20.13
2022-10-06T07:15:28.256Z,20.19
2022-10-06T07:18:14.478Z,20.10
2022-10-06T07:20:59.690Z,20.04
2022-10-06T07:23:45.842Z,20.00
2022-10-06T07:26:16.737Z,20.00
2022-10-06T07:28:44.143Z,20.02
2022-10-06T07:31:13.184Z,20.13
2022-10-06T07:33:40.819Z,20.24
2022-10-06T07:36:08.006Z,20.36
2022-10-06T07:38:34.749Z,20.46
2022-10-06T07:43:55.038Z,20.52
2022-10-06T07:46:22.872Z,20.47
2022-10-06T07:49:08.403Z,20.33
2022-10-06T07:51:35.381Z,20.23
2022-10-06T07:54:02.992Z,20.14
2022-10-06T07:56:34.493Z,20.02
2022-10-06T07:59:01.230Z,20.10
2022-10-06T08:01:29.634Z,20.20
2022-10-06T08:03:56.809Z,20.26
2022-10-06T08:06:24.416Z,20.25
2022-10-06T08:08:53.357Z,20.28
2022-10-06T08:11:21.648Z,20.41
2022-10-06T08:13:48.906Z,20.53
2022-10-06T08:16:21.329Z,20.53
2022-10-06T08:18:56.142Z,20.18
2022-10-06T08:21:31.231Z,19.90
2022-10-06T08:23:59.156Z,19.74
2022-10-06T08:26:27.592Z,19.58
2022-10-06T08:29:00.308Z,19.38
2022-10-06T08:31:27.075Z,19.20
2022-10-06T08:33:56.635Z,19.09
2022-10-06T08:36:30.946Z,19.05
2022-10-06T08:38:57.855Z,18.95
2022-10-06T08:41:39.516Z,18.94
2022-10-06T08:44:19.598Z,18.96
2022-10-06T08:47:01.623Z,18.96
2022-10-06T08:49:40.835Z,18.97
2022-10-06T08:52:18.103Z,18.99
2022-10-06T08:54:49.976Z,19.03
2022-10-06T08:57:28.401Z,19.16
2022-10-06T08:59:55.385Z,19.17
2022-10-06T09:02:30.394Z,19.16
2022-10-06T09:05:01.105Z,19.28
2022-10-06T09:08:04.107Z,19.47
2022-10-06T09:10:49.256Z,19.79
2022-10-06T09:13:32.063Z,20.19
2022-10-06T09:16:07.237Z,20.44
2022-10-06T09:19:03.782Z,20.59
2022-10-06T09:21:40.058Z,20.58
2022-10-06T09:24:13.839Z,20.65
2022-10-06T09:26:46.352Z,20.66
2022-10-06T09:29:14.106Z,20.56
2022-10-06T09:31:43.698Z,20.76
2022-10-06T09:34:25.736Z,20.85
2022-10-06T09:37:01.753Z,21.02
2022-10-06T09:39:37.010Z,21.19
2022-10-06T09:42:35.501Z,21.44
2022-10-06T09:45:04.985Z,22.27
2022-10-06T09:47:40.770Z,22.82
2022-10-06T09:50:21.778Z,23.08
2022-10-06T09:52:57.592Z,23.45
2022-10-06T09:55:29.242Z,27.27
2022-10-06T09:57:57.778Z,29.60
2022-10-06T10:00:32.920Z,29.47
2022-10-06T10:03:08.038Z,32.67
2022-10-06T10:05:45.799Z,35.47
2022-10-06T10:08:25.941Z,37.68
2022-10-06T10:11:37.961Z,39.57
2022-10-06T10:14:15.058Z,40.88
2022-10-06T10:16:42.482Z,41.80
2022-10-06T10:19:33.112Z,42.45
2022-10-06T10:22:00.051Z,43.09
2022-10-06T10:24:48.244Z,43.21
2022-10-06T10:27:23.625Z,39.57
2022-10-06T10:30:01.656Z,35.41
2022-10-06T10:32:37.480Z,32.24
2022-10-06T10:35:22.443Z,30.00
2022-10-06T10:38:05.149Z,28.89
2022-10-06T10:40:43.125Z,28.25
2022-10-06T10:43:12.470Z,28.09
2022-10-06T10:45:50.363Z,27.77
2022-10-06T10:48:46.344Z,27.68
2022-10-06T10:51:20.242Z,27.63
2022-10-06T10:54:01.186Z,27.38
2022-10-06T10:56:30.977Z,27.40
2022-10-06T10:59:07.149Z,29.27
2022-10-06T11:01:50.067Z,32.27
2022-10-06T11:04:16.931Z,34.68
2022-10-06T11:06:54.190Z,37.17
2022-10-06T11:09:26.685Z,39.72
2022-10-06T11:12:10.616Z,41.28
2022-10-06T11:14:50.876Z,42.44
2022-10-06T11:17:44.793Z,42.05
2022-10-06T11:20:22.188Z,41.30
2022-10-06T11:23:00.315Z,39.99
2022-10-06T11:25:35.035Z,39.88
2022-10-06T11:28:11.881Z,40.09
2022-10-06T11:31:09.902Z,40.29
2022-10-06T11:33:49.386Z,40.43
2022-10-06T11:36:29.883Z,39.12
2022-10-06T11:39:06.967Z,37.93
2022-10-06T11:41:44.019Z,36.32
2022-10-06T11:44:19.966Z,36.40
2022-10-06T11:47:45.165Z,37.05
2022-10-06T11:50:37.863Z,38.09
2022-10-06T11:53:05.915Z,37.65
2022-10-06T11:55:32.918Z,38.66
2022-10-06T11:58:23.568Z,39.63
2022-10-06T12:00:54.615Z,39.34
2022-10-06T12:03:33.233Z,39.89
2022-10-06T12:06:00.189Z,40.51
2022-10-06T12:08:38.370Z,41.05
2022-10-06T12:11:41.115Z,41.28
2022-10-06T12:17:27.822Z,41.03
2022-10-06T12:20:19.197Z,40.41
2022-10-06T12:22:52.523Z,37.58
2022-10-06T12:25:22.273Z,34.15
2022-10-06T12:28:17.027Z,31.68
2022-10-06T12:31:04.942Z,29.64
2022-10-06T12:33:38.190Z,28.09
2022-10-06T12:36:16.256Z,27.28
2022-10-06T12:39:05.087Z,26.75
2022-10-06T12:41:56.511Z,26.40
2022-10-06T12:44:38.219Z,26.01
2022-10-06T12:47:21.984Z,25.85
2022-10-06T12:49:55.371Z,25.75
2022-10-06T12:52:52.181Z,25.54
2022-10-06T12:55:32.175Z,25.31
2022-10-06T12:57:59.121Z,25.20
2022-10-06T13:00:42.511Z,25.26
2022-10-06T13:03:18.465Z,25.03
2022-10-06T13:05:51.515Z,24.47
2022-10-06T13:08:23.236Z,24.38
2022-10-06T13:10:50.501Z,24.31
2022-10-06T13:13:25.045Z,24.47
2022-10-06T13:15:55.968Z,24.29
2022-10-06T13:18:23.371Z,24.44
2022-10-06T13:20:55.213Z,24.57
2022-10-06T13:23:29.319Z,24.59
2022-10-06T13:26:00.242Z,24.31
2022-10-06T13:28:33.037Z,24.27
2022-10-06T13:31:17.255Z,24.26
2022-10-06T13:33:46.001Z,24.22
2022-10-06T13:36:13.446Z,24.19
2022-10-06T13:38:41.845Z,24.11
2022-10-06T13:41:29.701Z,23.86
2022-10-06T13:43:56.266Z,23.76
2022-10-06T13:46:26.755Z,23.25
2022-10-06T13:49:03.446Z,23.11
2022-10-06T13:51:32.423Z,23.19
2022-10-06T13:54:01.454Z,23.15
2022-10-06T13:56:39.156Z,23.09
2022-10-06T13:59:31.056Z,23.14
2022-10-06T14:02:00.586Z,23.18
2022-10-06T14:04:27.150Z,23.36
2022-10-06T14:06:58.112Z,23.38
2022-10-06T14:09:31.191Z,23.55
2022-10-06T14:12:20.439Z,23.73
2022-10-06T14:14:49.733Z,23.71
2022-10-06T14:17:25.653Z,23.77
2022-10-06T14:19:52.410Z,23.79
2022-10-06T14:22:38.317Z,23.85
2022-10-06T14:25:12.305Z,23.56
2022-10-06T14:27:38.892Z,23.46
2022-10-06T14:30:06.113Z,23.41
2022-10-06T14:32:32.732Z,23.40
2022-10-06T14:34:59.375Z,23.29
2022-10-06T14:37:25.913Z,22.97
2022-10-06T14:39:53.953Z,22.88
2022-10-06T14:42:24.244Z,22.81
2022-10-06T14:44:50.689Z,22.83
2022-10-06T14:47:17.363Z,22.88
2022-10-06T14:49:45.182Z,22.86
2022-10-06T14:52:12.062Z,22.70
2022-10-06T14:54:39.018Z,22.57
2022-10-06T14:57:05.707Z,22.40
2022-10-06T14:59:32.654Z,22.33
2022-10-06T15:01:59.232Z,22.29
2022-10-06T15:04:27.694Z,22.33
2022-10-06T15:07:12.986Z,22.34
2022-10-06T15:09:39.645Z,22.29
2022-10-06T15:12:06.340Z,22.25
2022-10-06T15:14:35.185Z,22.28
2022-10-06T15:17:02.236Z,22.31
2022-10-06T15:19:28.824Z,22.35
2022-10-06T15:21:56.180Z,22.27
2022-10-06T15:24:22.745Z,22.09
2022-10-06T15:27:07.861Z,22.05
2022-10-06T15:29:37.440Z,21.96
2022-10-06T15:32:06.530Z,21.88
2022-10-06T15:34:34.642Z,21.73
2022-10-06T15:37:01.414Z,21.60
2022-10-06T15:39:30.519Z,21.57
2022-10-06T15:41:58.005Z,21.53
2022-10-06T15:44:24.685Z,21.48
2022-10-06T15:46:56.045Z,21.47
2022-10-06T15:49:26.635Z,21.37
2022-10-06T15:51:56.547Z,21.32
2022-10-06T15:54:37.962Z,21.26
2022-10-06T15:57:08.556Z,21.17
2022-10-06T15:59:35.475Z,21.10
2022-10-06T16:02:09.702Z,21.05
2022-10-06T16:04:38.322Z,20.99
2022-10-06T16:07:19.025Z,20.95
2022-10-06T16:09:47.743Z,20.85
2022-10-06T16:12:17.092Z,20.80
2022-10-06T16:14:44.103Z,20.77
2022-10-06T16:17:11.571Z,20.73
2022-10-06T16:19:38.549Z,20.64
2022-10-06T16:22:07.085Z,20.59
2022-10-06T16:24:34.128Z,20.56
2022-10-06T16:27:00.787Z,20.46
2022-10-06T16:29:28.069Z,20.40
2022-10-06T16:31:55.137Z,20.34
2022-10-06T16:34:22.747Z,20.25
2022-10-06T16:36:49.449Z,20.18
2022-10-06T16:39:23.510Z,20.14
2022-10-06T16:41:51.176Z,20.12
2022-10-06T16:44:18.215Z,20.07
2022-10-06T16:46:45.245Z,20.04
2022-10-06T16:49:12.292Z,19.99
2022-10-06T16:51:41.542Z,19.93
2022-10-06T16:54:10.653Z,19.86
2022-10-06T16:56:46.218Z,19.81
2022-10-06T16:59:21.004Z,19.73
2022-10-06T17:01:48.823Z,19.64
2022-10-06T17:04:18.220Z,19.59
2022-10-06T17:06:56.067Z,19.55
2022-10-06T17:09:25.104Z,19.47
2022-10-06T17:11:54.798Z,19.42
2022-10-06T17:14:22.675Z,19.39
2022-10-06T17:16:51.905Z,19.38
2022-10-06T17:19:20.647Z,19.34
2022-10-06T17:21:50.488Z,19.30
2022-10-06T17:24:19.842Z,19.25
2022-10-06T17:26:49.359Z,19.25
2022-10-06T17:29:18.969Z,19.21
2022-10-06T17:31:46.844Z,19.15
2022-10-06T17:34:20.287Z,19.08
2022-10-06T17:36:50.550Z,18.99
2022-10-06T17:39:19.458Z,18.96
2022-10-06T17:41:47.744Z,18.90
2022-10-06T17:44:22.742Z,18.83
2022-10-06T17:46:51.821Z,18.77
2022-10-06T17:49:20.680Z,18.74
2022-10-06T17:51:47.956Z,18.68
2022-10-06T17:54:16.927Z,18.64
2022-10-06T17:56:46.002Z,18.58
2022-10-06T17:59:18.607Z,18.52
2022-10-06T18:01:45.382Z,18.46
2022-10-06T18:04:16.201Z,18.45
2022-10-06T18:06:44.495Z,18.40
2022-10-06T18:09:11.407Z,18.37
2022-10-06T18:11:39.670Z,18.31
2022-10-06T18:14:07.620Z,18.27
2022-10-06T18:16:55.678Z,18.21
2022-10-06T18:19:26.388Z,18.15
2022-10-06T18:21:56.551Z,18.17
2022-10-06T18:24:26.024Z,18.09
2022-10-06T18:26:54.848Z,18.03
2022-10-06T18:29:23.820Z,18.00
2022-10-06T18:31:52.673Z,17.96
2022-10-06T18:37:06.247Z,17.84
2022-10-06T18:39:33.490Z,17.82
2022-10-06T18:42:05.345Z,17.79
2022-10-06T18:44:50.593Z,17.75
2022-10-06T18:47:35.855Z,17.74
2022-10-06T18:50:02.641Z,17.70
2022-10-06T18:52:29.178Z,17.66
2022-10-06T18:54:55.778Z,17.61
2022-10-06T18:57:27.287Z,17.56
2022-10-06T18:59:55.009Z,17.54
2022-10-06T19:02:21.758Z,17.53
2022-10-06T19:04:48.482Z,17.44
2022-10-06T19:07:15.181Z,17.41
2022-10-06T19:09:46.407Z,17.38
2022-10-06T19:12:14.081Z,17.33
2022-10-06T19:14:47.108Z,17.32
2022-10-06T19:17:14.906Z,17.29
2022-10-06T19:19:56.963Z,17.27
2022-10-06T19:22:24.997Z,17.21
2022-10-06T19:24:52.383Z,17.18
2022-10-06T19:27:24.294Z,17.14
2022-10-06T19:29:56.629Z,17.11
2022-10-06T19:32:26.603Z,17.06
2022-10-06T19:34:54.869Z,17.00
2022-10-06T19:37:21.741Z,16.87
2022-10-06T19:39:50.196Z,16.88
2022-10-06T19:42:37.579Z,16.88
2022-10-06T19:45:05.737Z,16.83
2022-10-06T19:47:32.453Z,16.81
2022-10-06T19:50:03.683Z,16.77
2022-10-06T19:52:33.266Z,16.76
2022-10-06T19:55:04.652Z,16.72
2022-10-06T19:57:32.520Z,16.72
2022-10-06T19:59:59.163Z,16.70
2022-10-06T20:02:25.893Z,16.67
2022-10-06T20:04:52.448Z,16.63
2022-10-06T20:07:21.702Z,16.61
2022-10-06T20:09:48.645Z,16.58
2022-10-06T20:12:19.739Z,16.55
2022-10-06T20:14:49.903Z,16.52
2022-10-06T20:17:17.543Z,16.51
2022-10-06T20:19:46.596Z,16.50
2022-10-06T20:22:13.488Z,16.46
2022-10-06T20:24:40.218Z,16.43
2022-10-06T20:27:06.834Z,16.43
2022-10-06T20:29:34.720Z,16.41
2022-10-06T20:32:01.600Z,16.38
2022-10-06T20:34:33.349Z,16.32
2022-10-06T20:37:02.539Z,16.26
2022-10-06T20:39:52.343Z,16.19
2022-10-06T20:42:19.797Z,16.10
2022-10-06T20:44:46.682Z,16.00
2022-10-06T20:47:13.951Z,16.02
2022-10-06T20:49:42.305Z,16.02
2022-10-06T20:52:09.751Z,16.03
2022-10-06T20:54:37.214Z,16.03
2022-10-06T20:57:06.090Z,16.01
2022-10-06T20:59:36.508Z,16.01
2022-10-06T21:02:04.493Z,15.97
2022-10-06T21:04:31.041Z,15.93
2022-10-06T21:06:57.797Z,15.90
2022-10-06T21:09:24.924Z,15.91
2022-10-06T21:11:51.816Z,15.88
2022-10-06T21:14:18.608Z,15.83
2022-10-06T21:16:46.931Z,15.88
2022-10-06T21:19:16.636Z,15.89
2022-10-06T21:21:45.887Z,15.87
2022-10-06T21:24:12.971Z,15.77
2022-10-06T21:26:42.197Z,15.72
2022-10-06T21:29:10.711Z,15.75
2022-10-06T21:31:37.322Z,15.73
2022-10-06T21:34:05.011Z,15.65
2022-10-06T21:36:32.120Z,15.51
2022-10-06T21:39:00.971Z,15.49
2022-10-06T21:41:35.930Z,15.47
2022-10-06T21:44:03.936Z,15.43
2022-10-06T21:46:36.204Z,15.44
2022-10-06T21:49:05.647Z,15.45
2022-10-06T21:51:33.190Z,15.39
2022-10-06T21:54:00.987Z,15.36
2022-10-06T21:56:30.143Z,15.37
2022-10-06T21:58:57.652Z,15.33
2022-10-06T22:01:27.924Z,15.20
2022-10-06T22:03:56.718Z,15.14
2022-10-06T22:06:23.809Z,15.15
2022-10-06T22:08:50.534Z,15.15
2022-10-06T22:11:22.588Z,15.09
2022-10-06T22:13:52.792Z,15.04
2022-10-06T22:16:22.346Z,14.96
2022-10-06T22:18:49.624Z,14.88
2022-10-06T22:21:26.871Z,14.86
2022-10-06T22:23:56.015Z,14.90
2022-10-06T22:26:23.806Z,14.92
2022-10-06T22:28:52.014Z,14.95
2022-10-06T22:31:23.335Z,14.91
2022-10-06T22:33:55.480Z,14.84
2022-10-06T22:36:22.978Z,14.84
2022-10-06T22:38:50.206Z,14.82
2022-10-06T22:41:17.259Z,14.77
2022-10-06T22:43:43.997Z,14.71
2022-10-06T22:46:11.822Z,14.65
2022-10-06T22:48:38.938Z,14.60
2022-10-06T22:51:06.591Z,14.50
2022-10-06T22:53:33.998Z,14.49
2022-10-06T22:56:01.919Z,14.52
2022-10-06T22:58:28.725Z,14.52
2022-10-06T23:00:55.439Z,14.51
2022-10-06T23:03:22.453Z,14.52
2022-10-06T23:05:57.478Z,14.53
2022-10-06T23:08:25.155Z,14.44
2022-10-06T23:10:51.853Z,14.44
2022-10-06T23:13:19.533Z,14.45
2022-10-06T23:15:46.624Z,14.40
2022-10-06T23:18:14.066Z,14.39
2022-10-06T23:20:40.627Z,14.38
2022-10-06T23:23:07.288Z,14.40
2022-10-06T23:25:37.973Z,14.41
2022-10-06T23:28:04.896Z,14.35
2022-10-06T23:30:34.464Z,14.28
2022-10-06T23:33:01.073Z,14.20
2022-10-06T23:35:27.720Z,14.14
2022-10-06T23:37:54.398Z,14.11
2022-10-06T23:40:20.902Z,14.05
2022-10-06T23:42:47.491Z,14.05
2022-10-06T23:45:14.004Z,14.06
2022-10-06T23:47:40.549Z,14.01
2022-10-06T23:50:07.772Z,14.01
2022-10-06T23:52:34.431Z,14.06
2022-10-06T23:55:01.000Z,14.06
2022-10-06T23:57:27.630Z,14.00
2022-10-06T23:59:54.243Z,14.00
